sensor_id;sensor_type;location;lat;lon;timestamp;P1;durP1;ratioP1;P2;durP2;ratioP2
11496;SDS011;5805;51.542;7.230;2023-12-20T00:02:22;17.48;;;12.38;;
11496;SDS011;5805;51.542;7.230;2023-12-20T00:04:48;15.18;;;12.07;;
11496;SDS011;5805;51.542;7.230;2023-12-20T00:07:14;17.05;;;11.75;;
11496;SDS011;5805;51.542;7.230;2023-12-20T00:09:41;15.23;;;12.18;;
11496;SDS011;5805;51.542;7.230;2023-12-20T00:12:09;15.02;;;11.43;;
11496;SDS011;5805;51.542;7.230;2023-12-20T00:14:35;14.40;;;11.38;;
11496;SDS011;5805;51.542;7.230;2023-12-20T00:17:03;17.52;;;11.82;;
11496;SDS011;5805;51.542;7.230;2023-12-20T00:19:29;15.20;;;11.73;;
11496;SDS011;5805;51.542;7.230;2023-12-20T00:21:55;14.95;;;10.90;;
11496;SDS011;5805;51.542;7.230;2023-12-20T00:24:21;13.43;;;10.32;;
11496;SDS011;5805;51.542;7.230;2023-12-20T00:26:46;13.48;;;10.40;;
11496;SDS011;5805;51.542;7.230;2023-12-20T00:29:15;14.10;;;9.95;;
11496;SDS011;5805;51.542;7.230;2023-12-20T00:31:41;15.30;;;10.45;;
11496;SDS011;5805;51.542;7.230;2023-12-20T00:34:08;10.10;;;7.70;;
11496;SDS011;5805;51.542;7.230;2023-12-20T00:36:33;11.90;;;7.32;;
11496;SDS011;5805;51.542;7.230;2023-12-20T00:38:59;10.55;;;6.90;;
11496;SDS011;5805;51.542;7.230;2023-12-20T00:41:25;9.00;;;6.75;;
11496;SDS011;5805;51.542;7.230;2023-12-20T00:43:51;9.23;;;6.28;;
11496;SDS011;5805;51.542;7.230;2023-12-20T00:46:19;9.57;;;5.47;;
11496;SDS011;5805;51.542;7.230;2023-12-20T00:48:44;10.45;;;6.63;;
11496;SDS011;5805;51.542;7.230;2023-12-20T00:51:10;8.00;;;5.80;;
11496;SDS011;5805;51.542;7.230;2023-12-20T00:53:36;9.30;;;6.22;;
11496;SDS011;5805;51.542;7.230;2023-12-20T00:56:01;8.88;;;5.30;;
11496;SDS011;5805;51.542;7.230;2023-12-20T00:58:27;9.70;;;5.60;;
11496;SDS011;5805;51.542;7.230;2023-12-20T01:00:53;12.23;;;6.38;;
11496;SDS011;5805;51.542;7.230;2023-12-20T01:03:20;9.48;;;5.78;;
11496;SDS011;5805;51.542;7.230;2023-12-20T01:05:46;12.20;;;6.50;;
11496;SDS011;5805;51.542;7.230;2023-12-20T01:08:11;10.48;;;6.28;;
11496;SDS011;5805;51.542;7.230;2023-12-20T01:10:37;11.05;;;5.75;;
11496;SDS011;5805;51.542;7.230;2023-12-20T01:13:03;14.18;;;5.90;;
11496;SDS011;5805;51.542;7.230;2023-12-20T01:15:30;10.93;;;6.25;;
11496;SDS011;5805;51.542;7.230;2023-12-20T01:17:56;9.07;;;6.20;;
11496;SDS011;5805;51.542;7.230;2023-12-20T01:20:23;12.23;;;6.57;;
11496;SDS011;5805;51.542;7.230;2023-12-20T01:22:48;11.52;;;6.50;;
11496;SDS011;5805;51.542;7.230;2023-12-20T01:25:14;11.20;;;6.70;;
11496;SDS011;5805;51.542;7.230;2023-12-20T01:27:40;11.75;;;7.25;;
11496;SDS011;5805;51.542;7.230;2023-12-20T01:30:06;12.15;;;6.32;;
11496;SDS011;5805;51.542;7.230;2023-12-20T01:32:32;12.90;;;6.22;;
11496;SDS011;5805;51.542;7.230;2023-12-20T01:34:58;11.43;;;6.15;;
11496;SDS011;5805;51.542;7.230;2023-12-20T01:37:25;10.80;;;6.63;;
11496;SDS011;5805;51.542;7.230;2023-12-20T01:39:51;9.45;;;5.32;;
11496;SDS011;5805;51.542;7.230;2023-12-20T01:42:18;9.13;;;4.80;;
11496;SDS011;5805;51.542;7.230;2023-12-20T01:44:43;12.70;;;4.88;;
11496;SDS011;5805;51.542;7.230;2023-12-20T01:47:09;9.23;;;4.70;;
11496;SDS011;5805;51.542;7.230;2023-12-20T01:49:35;8.77;;;5.03;;
11496;SDS011;5805;51.542;7.230;2023-12-20T01:52:01;8.43;;;4.50;;
11496;SDS011;5805;51.542;7.230;2023-12-20T01:54:29;9.35;;;4.25;;
11496;SDS011;5805;51.542;7.230;2023-12-20T01:56:55;7.13;;;3.95;;
11496;SDS011;5805;51.542;7.230;2023-12-20T01:59:21;11.80;;;4.82;;
11496;SDS011;5805;51.542;7.230;2023-12-20T02:01:46;9.77;;;4.88;;
11496;SDS011;5805;51.542;7.230;2023-12-20T02:04:12;7.45;;;4.32;;
11496;SDS011;5805;51.542;7.230;2023-12-20T02:06:38;9.95;;;4.50;;
11496;SDS011;5805;51.542;7.230;2023-12-20T02:09:05;9.80;;;4.38;;
11496;SDS011;5805;51.542;7.230;2023-12-20T02:11:33;9.88;;;4.40;;
11496;SDS011;5805;51.542;7.230;2023-12-20T02:14:00;12.88;;;5.05;;
11496;SDS011;5805;51.542;7.230;2023-12-20T02:16:26;12.07;;;4.75;;
11496;SDS011;5805;51.542;7.230;2023-12-20T02:18:52;11.80;;;4.93;;
11496;SDS011;5805;51.542;7.230;2023-12-20T02:21:19;8.60;;;4.63;;
11496;SDS011;5805;51.542;7.230;2023-12-20T02:23:50;8.18;;;4.95;;
11496;SDS011;5805;51.542;7.230;2023-12-20T02:26:16;9.63;;;4.57;;
11496;SDS011;5805;51.542;7.230;2023-12-20T02:28:41;8.82;;;4.13;;
11496;SDS011;5805;51.542;7.230;2023-12-20T02:31:07;10.65;;;5.22;;
11496;SDS011;5805;51.542;7.230;2023-12-20T02:33:34;11.75;;;4.90;;
11496;SDS011;5805;51.542;7.230;2023-12-20T02:36:02;9.82;;;4.15;;
11496;SDS011;5805;51.542;7.230;2023-12-20T02:38:29;10.20;;;5.00;;
11496;SDS011;5805;51.542;7.230;2023-12-20T02:40:55;10.73;;;4.57;;
11496;SDS011;5805;51.542;7.230;2023-12-20T02:43:20;9.50;;;4.57;;
11496;SDS011;5805;51.542;7.230;2023-12-20T02:45:46;8.82;;;4.63;;
11496;SDS011;5805;51.542;7.230;2023-12-20T02:48:12;11.35;;;4.53;;
11496;SDS011;5805;51.542;7.230;2023-12-20T02:50:38;6.43;;;3.63;;
11496;SDS011;5805;51.542;7.230;2023-12-20T02:53:03;7.82;;;4.13;;
11496;SDS011;5805;51.542;7.230;2023-12-20T02:55:31;9.18;;;4.00;;
11496;SDS011;5805;51.542;7.230;2023-12-20T02:57:58;14.95;;;5.13;;
11496;SDS011;5805;51.542;7.230;2023-12-20T03:00:23;8.63;;;4.05;;
11496;SDS011;5805;51.542;7.230;2023-12-20T03:02:49;12.20;;;4.18;;
11496;SDS011;5805;51.542;7.230;2023-12-20T03:05:15;11.43;;;4.30;;
11496;SDS011;5805;51.542;7.230;2023-12-20T03:07:40;10.45;;;4.80;;
11496;SDS011;5805;51.542;7.230;2023-12-20T03:10:06;11.35;;;4.97;;
11496;SDS011;5805;51.542;7.230;2023-12-20T03:12:34;11.60;;;5.00;;
11496;SDS011;5805;51.542;7.230;2023-12-20T03:15:00;9.50;;;5.05;;
11496;SDS011;5805;51.542;7.230;2023-12-20T03:17:26;15.82;;;5.15;;
11496;SDS011;5805;51.542;7.230;2023-12-20T03:19:51;13.55;;;5.90;;
11496;SDS011;5805;51.542;7.230;2023-12-20T03:22:17;10.73;;;5.05;;
11496;SDS011;5805;51.542;7.230;2023-12-20T03:24:43;12.10;;;5.15;;
11496;SDS011;5805;51.542;7.230;2023-12-20T03:27:09;12.05;;;5.32;;
11496;SDS011;5805;51.542;7.230;2023-12-20T03:29:36;10.88;;;4.75;;
11496;SDS011;5805;51.542;7.230;2023-12-20T03:32:03;9.40;;;5.10;;
11496;SDS011;5805;51.542;7.230;2023-12-20T03:34:29;9.90;;;4.68;;
11496;SDS011;5805;51.542;7.230;2023-12-20T03:36:55;13.13;;;4.90;;
11496;SDS011;5805;51.542;7.230;2023-12-20T03:39:20;14.68;;;5.40;;
11496;SDS011;5805;51.542;7.230;2023-12-20T03:41:46;13.57;;;5.40;;
11496;SDS011;5805;51.542;7.230;2023-12-20T03:44:12;12.23;;;5.32;;
11496;SDS011;5805;51.542;7.230;2023-12-20T03:46:39;11.02;;;5.32;;
11496;SDS011;5805;51.542;7.230;2023-12-20T03:49:05;15.32;;;5.63;;
11496;SDS011;5805;51.542;7.230;2023-12-20T03:51:30;10.57;;;5.35;;
11496;SDS011;5805;51.542;7.230;2023-12-20T03:53:56;11.50;;;5.68;;
11496;SDS011;5805;51.542;7.230;2023-12-20T03:56:23;14.40;;;6.40;;
11496;SDS011;5805;51.542;7.230;2023-12-20T03:58:49;13.43;;;4.72;;
11496;SDS011;5805;51.542;7.230;2023-12-20T04:01:14;10.13;;;4.80;;
11496;SDS011;5805;51.542;7.230;2023-12-20T04:03:42;9.10;;;4.30;;
11496;SDS011;5805;51.542;7.230;2023-12-20T04:06:07;13.95;;;4.15;;
11496;SDS011;5805;51.542;7.230;2023-12-20T04:08:33;8.68;;;3.90;;
11496;SDS011;5805;51.542;7.230;2023-12-20T04:11:00;9.38;;;3.35;;
11496;SDS011;5805;51.542;7.230;2023-12-20T04:13:25;8.30;;;3.58;;
11496;SDS011;5805;51.542;7.230;2023-12-20T04:15:51;6.78;;;2.97;;
11496;SDS011;5805;51.542;7.230;2023-12-20T04:18:17;7.57;;;3.47;;
11496;SDS011;5805;51.542;7.230;2023-12-20T04:20:44;9.18;;;3.28;;
11496;SDS011;5805;51.542;7.230;2023-12-20T04:23:10;11.07;;;3.42;;
11496;SDS011;5805;51.542;7.230;2023-12-20T04:25:35;12.18;;;3.80;;
11496;SDS011;5805;51.542;7.230;2023-12-20T04:28:01;9.68;;;3.03;;
11496;SDS011;5805;51.542;7.230;2023-12-20T04:30:27;10.38;;;3.47;;
11496;SDS011;5805;51.542;7.230;2023-12-20T04:32:53;10.18;;;3.40;;
11496;SDS011;5805;51.542;7.230;2023-12-20T04:35:19;14.85;;;3.72;;
11496;SDS011;5805;51.542;7.230;2023-12-20T04:37:48;8.05;;;3.35;;
11496;SDS011;5805;51.542;7.230;2023-12-20T04:40:14;11.18;;;3.80;;
11496;SDS011;5805;51.542;7.230;2023-12-20T04:42:39;10.55;;;3.63;;
11496;SDS011;5805;51.542;7.230;2023-12-20T04:45:05;10.55;;;3.28;;
11496;SDS011;5805;51.542;7.230;2023-12-20T04:47:31;17.92;;;3.50;;
11496;SDS011;5805;51.542;7.230;2023-12-20T04:49:57;10.32;;;3.85;;
11496;SDS011;5805;51.542;7.230;2023-12-20T04:52:23;9.60;;;3.72;;
11496;SDS011;5805;51.542;7.230;2023-12-20T04:54:50;10.35;;;3.97;;
11496;SDS011;5805;51.542;7.230;2023-12-20T04:57:16;6.97;;;3.80;;
11496;SDS011;5805;51.542;7.230;2023-12-20T04:59:42;8.75;;;3.78;;
11496;SDS011;5805;51.542;7.230;2023-12-20T05:02:09;8.52;;;3.83;;
11496;SDS011;5805;51.542;7.230;2023-12-20T05:04:34;11.38;;;4.18;;
11496;SDS011;5805;51.542;7.230;2023-12-20T05:07:00;10.55;;;4.82;;
11496;SDS011;5805;51.542;7.230;2023-12-20T05:09:25;11.00;;;4.05;;
11496;SDS011;5805;51.542;7.230;2023-12-20T05:11:53;11.43;;;4.35;;
11496;SDS011;5805;51.542;7.230;2023-12-20T05:14:18;10.88;;;4.47;;
11496;SDS011;5805;51.542;7.230;2023-12-20T05:16:44;11.25;;;4.28;;
11496;SDS011;5805;51.542;7.230;2023-12-20T05:19:10;11.20;;;4.18;;
11496;SDS011;5805;51.542;7.230;2023-12-20T05:21:36;11.15;;;4.30;;
11496;SDS011;5805;51.542;7.230;2023-12-20T05:24:01;10.60;;;4.75;;
11496;SDS011;5805;51.542;7.230;2023-12-20T05:26:27;11.77;;;4.68;;
11496;SDS011;5805;51.542;7.230;2023-12-20T05:28:54;8.80;;;3.83;;
11496;SDS011;5805;51.542;7.230;2023-12-20T05:31:20;10.10;;;4.43;;
11496;SDS011;5805;51.542;7.230;2023-12-20T05:33:46;8.70;;;4.43;;
11496;SDS011;5805;51.542;7.230;2023-12-20T05:36:12;11.93;;;4.45;;
11496;SDS011;5805;51.542;7.230;2023-12-20T05:38:37;11.15;;;3.85;;
11496;SDS011;5805;51.542;7.230;2023-12-20T05:41:03;14.43;;;4.18;;
11496;SDS011;5805;51.542;7.230;2023-12-20T05:43:29;11.55;;;4.10;;
11496;SDS011;5805;51.542;7.230;2023-12-20T05:45:56;9.13;;;3.80;;
11496;SDS011;5805;51.542;7.230;2023-12-20T05:48:22;8.57;;;3.67;;
11496;SDS011;5805;51.542;7.230;2023-12-20T05:50:49;9.32;;;3.92;;
11496;SDS011;5805;51.542;7.230;2023-12-20T05:53:14;11.15;;;4.03;;
11496;SDS011;5805;51.542;7.230;2023-12-20T05:55:40;9.35;;;4.05;;
11496;SDS011;5805;51.542;7.230;2023-12-20T05:58:06;12.43;;;4.00;;
11496;SDS011;5805;51.542;7.230;2023-12-20T06:00:32;14.50;;;4.90;;
11496;SDS011;5805;51.542;7.230;2023-12-20T06:02:59;9.30;;;4.00;;
11496;SDS011;5805;51.542;7.230;2023-12-20T06:05:25;12.45;;;3.50;;
11496;SDS011;5805;51.542;7.230;2023-12-20T06:07:50;13.02;;;4.10;;
11496;SDS011;5805;51.542;7.230;2023-12-20T06:10:16;11.85;;;3.97;;
11496;SDS011;5805;51.542;7.230;2023-12-20T06:12:42;10.48;;;3.85;;
11496;SDS011;5805;51.542;7.230;2023-12-20T06:15:08;9.40;;;3.40;;
11496;SDS011;5805;51.542;7.230;2023-12-20T06:17:34;12.88;;;3.33;;
11496;SDS011;5805;51.542;7.230;2023-12-20T06:20:01;8.50;;;3.33;;
11496;SDS011;5805;51.542;7.230;2023-12-20T06:22:28;9.48;;;3.33;;
11496;SDS011;5805;51.542;7.230;2023-12-20T06:24:54;7.88;;;3.13;;
11496;SDS011;5805;51.542;7.230;2023-12-20T06:27:20;9.82;;;3.42;;
11496;SDS011;5805;51.542;7.230;2023-12-20T06:29:46;9.10;;;3.28;;
11496;SDS011;5805;51.542;7.230;2023-12-20T06:32:12;8.70;;;3.63;;
11496;SDS011;5805;51.542;7.230;2023-12-20T06:34:37;12.85;;;4.32;;
11496;SDS011;5805;51.542;7.230;2023-12-20T06:37:05;9.25;;;3.10;;
11496;SDS011;5805;51.542;7.230;2023-12-20T06:39:30;9.73;;;3.53;;
11496;SDS011;5805;51.542;7.230;2023-12-20T06:41:56;14.32;;;4.18;;
11496;SDS011;5805;51.542;7.230;2023-12-20T06:44:22;13.13;;;4.40;;
11496;SDS011;5805;51.542;7.230;2023-12-20T06:46:48;12.98;;;3.20;;
11496;SDS011;5805;51.542;7.230;2023-12-20T06:49:13;8.98;;;3.30;;
11496;SDS011;5805;51.542;7.230;2023-12-20T06:51:39;8.15;;;3.20;;
11496;SDS011;5805;51.542;7.230;2023-12-20T06:54:07;13.80;;;3.47;;
11496;SDS011;5805;51.542;7.230;2023-12-20T06:56:33;11.07;;;3.35;;
11496;SDS011;5805;51.542;7.230;2023-12-20T06:58:59;11.80;;;3.78;;
11496;SDS011;5805;51.542;7.230;2023-12-20T07:01:25;12.55;;;4.05;;
11496;SDS011;5805;51.542;7.230;2023-12-20T07:03:50;12.82;;;4.65;;
11496;SDS011;5805;51.542;7.230;2023-12-20T07:06:16;9.77;;;4.00;;
11496;SDS011;5805;51.542;7.230;2023-12-20T07:08:42;7.70;;;3.42;;
11496;SDS011;5805;51.542;7.230;2023-12-20T07:11:09;11.95;;;4.18;;
11496;SDS011;5805;51.542;7.230;2023-12-20T07:13:35;11.07;;;3.85;;
11496;SDS011;5805;51.542;7.230;2023-12-20T07:16:00;9.00;;;3.67;;
11496;SDS011;5805;51.542;7.230;2023-12-20T07:18:26;9.95;;;4.30;;
11496;SDS011;5805;51.542;7.230;2023-12-20T07:20:52;15.98;;;4.70;;
11496;SDS011;5805;51.542;7.230;2023-12-20T07:23:17;10.35;;;3.67;;
11496;SDS011;5805;51.542;7.230;2023-12-20T07:25:43;8.93;;;3.75;;
11496;SDS011;5805;51.542;7.230;2023-12-20T07:28:10;10.50;;;3.90;;
11496;SDS011;5805;51.542;7.230;2023-12-20T07:30:36;10.27;;;3.92;;
11496;SDS011;5805;51.542;7.230;2023-12-20T07:33:02;10.18;;;4.00;;
11496;SDS011;5805;51.542;7.230;2023-12-20T07:35:28;10.75;;;3.70;;
11496;SDS011;5805;51.542;7.230;2023-12-20T07:37:54;11.63;;;3.55;;
11496;SDS011;5805;51.542;7.230;2023-12-20T07:40:19;12.18;;;3.67;;
11496;SDS011;5805;51.542;7.230;2023-12-20T07:42:45;10.70;;;3.60;;
11496;SDS011;5805;51.542;7.230;2023-12-20T07:45:12;9.05;;;3.53;;
11496;SDS011;5805;51.542;7.230;2023-12-20T07:47:38;9.88;;;3.00;;
11496;SDS011;5805;51.542;7.230;2023-12-20T07:50:04;11.18;;;3.53;;
11496;SDS011;5805;51.542;7.230;2023-12-20T07:52:30;16.60;;;4.80;;
11496;SDS011;5805;51.542;7.230;2023-12-20T07:54:56;15.90;;;4.38;;
11496;SDS011;5805;51.542;7.230;2023-12-20T07:57:21;9.43;;;3.60;;
11496;SDS011;5805;51.542;7.230;2023-12-20T07:59:48;6.72;;;3.58;;
11496;SDS011;5805;51.542;7.230;2023-12-20T08:02:15;10.35;;;3.08;;
11496;SDS011;5805;51.542;7.230;2023-12-20T08:04:41;9.75;;;3.80;;
11496;SDS011;5805;51.542;7.230;2023-12-20T08:07:07;11.20;;;3.78;;
11496;SDS011;5805;51.542;7.230;2023-12-20T08:09:33;5.72;;;3.03;;
11496;SDS011;5805;51.542;7.230;2023-12-20T08:11:58;10.73;;;3.42;;
11496;SDS011;5805;51.542;7.230;2023-12-20T08:14:24;13.10;;;3.22;;
11496;SDS011;5805;51.542;7.230;2023-12-20T08:16:50;9.10;;;2.85;;
11496;SDS011;5805;51.542;7.230;2023-12-20T08:19:17;11.63;;;4.43;;
11496;SDS011;5805;51.542;7.230;2023-12-20T08:21:43;9.57;;;3.55;;
11496;SDS011;5805;51.542;7.230;2023-12-20T08:24:09;11.43;;;3.53;;
11496;SDS011;5805;51.542;7.230;2023-12-20T08:26:34;9.43;;;3.85;;
11496;SDS011;5805;51.542;7.230;2023-12-20T08:29:00;11.55;;;3.72;;
11496;SDS011;5805;51.542;7.230;2023-12-20T08:31:26;6.68;;;2.75;;
11496;SDS011;5805;51.542;7.230;2023-12-20T08:33:52;18.52;;;3.60;;
11496;SDS011;5805;51.542;7.230;2023-12-20T08:36:19;11.77;;;3.80;;
11496;SDS011;5805;51.542;7.230;2023-12-20T08:38:44;12.25;;;3.42;;
11496;SDS011;5805;51.542;7.230;2023-12-20T08:41:10;13.38;;;3.92;;
11496;SDS011;5805;51.542;7.230;2023-12-20T08:43:36;8.07;;;3.05;;
11496;SDS011;5805;51.542;7.230;2023-12-20T08:46:02;13.27;;;3.63;;
11496;SDS011;5805;51.542;7.230;2023-12-20T08:48:28;7.30;;;3.17;;
11496;SDS011;5805;51.542;7.230;2023-12-20T08:50:53;11.15;;;3.47;;
11496;SDS011;5805;51.542;7.230;2023-12-20T08:53:20;13.65;;;3.40;;
11496;SDS011;5805;51.542;7.230;2023-12-20T08:55:46;11.00;;;3.47;;
11496;SDS011;5805;51.542;7.230;2023-12-20T08:58:12;9.05;;;3.10;;
11496;SDS011;5805;51.542;7.230;2023-12-20T09:00:38;15.00;;;4.40;;
11496;SDS011;5805;51.542;7.230;2023-12-20T09:03:04;12.50;;;3.65;;
11496;SDS011;5805;51.542;7.230;2023-12-20T09:05:30;7.90;;;3.05;;
11496;SDS011;5805;51.542;7.230;2023-12-20T09:07:56;14.25;;;3.67;;
11496;SDS011;5805;51.542;7.230;2023-12-20T09:10:23;10.63;;;3.40;;
11496;SDS011;5805;51.542;7.230;2023-12-20T09:12:49;10.35;;;2.95;;
11496;SDS011;5805;51.542;7.230;2023-12-20T09:15:15;7.15;;;2.60;;
11496;SDS011;5805;51.542;7.230;2023-12-20T09:17:41;13.05;;;3.40;;
11496;SDS011;5805;51.542;7.230;2023-12-20T09:20:07;16.25;;;4.03;;
11496;SDS011;5805;51.542;7.230;2023-12-20T09:22:33;12.15;;;3.20;;
11496;SDS011;5805;51.542;7.230;2023-12-20T09:24:59;12.40;;;3.85;;
11496;SDS011;5805;51.542;7.230;2023-12-20T09:27:26;9.18;;;3.15;;
11496;SDS011;5805;51.542;7.230;2023-12-20T09:29:52;11.15;;;3.00;;
11496;SDS011;5805;51.542;7.230;2023-12-20T09:32:18;9.68;;;3.20;;
11496;SDS011;5805;51.542;7.230;2023-12-20T09:34:44;11.60;;;3.65;;
11496;SDS011;5805;51.542;7.230;2023-12-20T09:37:10;8.38;;;2.92;;
11496;SDS011;5805;51.542;7.230;2023-12-20T09:39:36;12.80;;;3.50;;
11496;SDS011;5805;51.542;7.230;2023-12-20T09:42:02;10.32;;;2.85;;
11496;SDS011;5805;51.542;7.230;2023-12-20T09:44:30;14.35;;;3.35;;
11496;SDS011;5805;51.542;7.230;2023-12-20T09:46:57;10.70;;;3.22;;
11496;SDS011;5805;51.542;7.230;2023-12-20T09:49:27;7.72;;;2.53;;
11496;SDS011;5805;51.542;7.230;2023-12-20T09:51:53;8.70;;;2.85;;
11496;SDS011;5805;51.542;7.230;2023-12-20T09:54:20;9.20;;;3.17;;
11496;SDS011;5805;51.542;7.230;2023-12-20T09:56:47;8.43;;;2.60;;
11496;SDS011;5805;51.542;7.230;2023-12-20T09:59:13;12.98;;;2.92;;
11496;SDS011;5805;51.542;7.230;2023-12-20T10:01:41;9.27;;;3.03;;
11496;SDS011;5805;51.542;7.230;2023-12-20T10:04:08;12.52;;;2.65;;
11496;SDS011;5805;51.542;7.230;2023-12-20T10:06:34;9.50;;;2.95;;
11496;SDS011;5805;51.542;7.230;2023-12-20T10:09:00;15.50;;;3.22;;
11496;SDS011;5805;51.542;7.230;2023-12-20T10:11:26;9.00;;;2.92;;
11496;SDS011;5805;51.542;7.230;2023-12-20T10:13:52;11.43;;;3.03;;
11496;SDS011;5805;51.542;7.230;2023-12-20T10:16:24;9.25;;;2.28;;
11496;SDS011;5805;51.542;7.230;2023-12-20T10:18:53;11.38;;;3.25;;
11496;SDS011;5805;51.542;7.230;2023-12-20T10:21:19;11.35;;;3.47;;
11496;SDS011;5805;51.542;7.230;2023-12-20T10:23:45;10.20;;;3.13;;
11496;SDS011;5805;51.542;7.230;2023-12-20T10:26:12;9.45;;;2.78;;
11496;SDS011;5805;51.542;7.230;2023-12-20T10:28:44;8.00;;;2.92;;
11496;SDS011;5805;51.542;7.230;2023-12-20T10:31:10;11.80;;;3.08;;
11496;SDS011;5805;51.542;7.230;2023-12-20T10:33:50;10.63;;;2.78;;
11496;SDS011;5805;51.542;7.230;2023-12-20T10:36:17;11.68;;;3.35;;
11496;SDS011;5805;51.542;7.230;2023-12-20T10:38:43;10.45;;;3.30;;
11496;SDS011;5805;51.542;7.230;2023-12-20T10:41:10;13.18;;;3.58;;
11496;SDS011;5805;51.542;7.230;2023-12-20T10:43:37;10.13;;;3.05;;
11496;SDS011;5805;51.542;7.230;2023-12-20T10:46:03;11.98;;;3.15;;
11496;SDS011;5805;51.542;7.230;2023-12-20T10:48:31;13.20;;;3.22;;
11496;SDS011;5805;51.542;7.230;2023-12-20T10:50:57;9.68;;;3.08;;
11496;SDS011;5805;51.542;7.230;2023-12-20T10:53:25;6.93;;;2.85;;
11496;SDS011;5805;51.542;7.230;2023-12-20T10:55:51;9.98;;;3.42;;
11496;SDS011;5805;51.542;7.230;2023-12-20T10:58:20;10.25;;;3.05;;
11496;SDS011;5805;51.542;7.230;2023-12-20T11:00:47;9.50;;;3.65;;
11496;SDS011;5805;51.542;7.230;2023-12-20T11:03:15;8.15;;;3.10;;
11496;SDS011;5805;51.542;7.230;2023-12-20T11:05:44;9.10;;;2.95;;
11496;SDS011;5805;51.542;7.230;2023-12-20T11:08:17;8.95;;;2.95;;
11496;SDS011;5805;51.542;7.230;2023-12-20T11:10:51;9.65;;;3.53;;
11496;SDS011;5805;51.542;7.230;2023-12-20T11:13:26;13.57;;;3.97;;
11496;SDS011;5805;51.542;7.230;2023-12-20T11:15:57;10.10;;;3.53;;
11496;SDS011;5805;51.542;7.230;2023-12-20T11:18:28;11.32;;;3.10;;
11496;SDS011;5805;51.542;7.230;2023-12-20T11:20:54;10.95;;;3.30;;
11496;SDS011;5805;51.542;7.230;2023-12-20T11:23:19;7.32;;;2.90;;
11496;SDS011;5805;51.542;7.230;2023-12-20T11:25:46;15.23;;;4.10;;
11496;SDS011;5805;51.542;7.230;2023-12-20T11:28:16;12.02;;;3.47;;
11496;SDS011;5805;51.542;7.230;2023-12-20T11:30:46;6.53;;;3.10;;
11496;SDS011;5805;51.542;7.230;2023-12-20T11:33:13;6.65;;;3.22;;
11496;SDS011;5805;51.542;7.230;2023-12-20T11:35:39;12.93;;;3.33;;
11496;SDS011;5805;51.542;7.230;2023-12-20T11:38:07;8.38;;;3.22;;
11496;SDS011;5805;51.542;7.230;2023-12-20T11:40:33;10.35;;;2.95;;
11496;SDS011;5805;51.542;7.230;2023-12-20T11:43:02;11.75;;;3.65;;
11496;SDS011;5805;51.542;7.230;2023-12-20T11:45:28;10.55;;;3.25;;
11496;SDS011;5805;51.542;7.230;2023-12-20T11:47:54;8.38;;;3.30;;
11496;SDS011;5805;51.542;7.230;2023-12-20T11:50:22;12.02;;;3.13;;
11496;SDS011;5805;51.542;7.230;2023-12-20T11:52:49;8.20;;;3.22;;
11496;SDS011;5805;51.542;7.230;2023-12-20T11:55:16;7.50;;;3.20;;
11496;SDS011;5805;51.542;7.230;2023-12-20T11:57:42;14.02;;;3.35;;
11496;SDS011;5805;51.542;7.230;2023-12-20T12:00:10;9.40;;;3.50;;
11496;SDS011;5805;51.542;7.230;2023-12-20T12:02:36;10.70;;;3.40;;
11496;SDS011;5805;51.542;7.230;2023-12-20T12:05:02;8.75;;;3.38;;
11496;SDS011;5805;51.542;7.230;2023-12-20T12:07:28;11.07;;;3.33;;
11496;SDS011;5805;51.542;7.230;2023-12-20T12:09:54;11.05;;;3.10;;
11496;SDS011;5805;51.542;7.230;2023-12-20T12:12:19;10.02;;;3.08;;
11496;SDS011;5805;51.542;7.230;2023-12-20T12:14:45;10.82;;;3.50;;
11496;SDS011;5805;51.542;7.230;2023-12-20T12:17:12;7.93;;;3.03;;
11496;SDS011;5805;51.542;7.230;2023-12-20T12:19:39;9.80;;;2.97;;
11496;SDS011;5805;51.542;7.230;2023-12-20T12:22:05;11.38;;;3.40;;
11496;SDS011;5805;51.542;7.230;2023-12-20T12:24:31;5.53;;;2.90;;
11496;SDS011;5805;51.542;7.230;2023-12-20T12:26:57;10.77;;;3.08;;
11496;SDS011;5805;51.542;7.230;2023-12-20T12:29:23;8.02;;;2.70;;
11496;SDS011;5805;51.542;7.230;2023-12-20T12:31:48;12.93;;;3.53;;
11496;SDS011;5805;51.542;7.230;2023-12-20T12:34:17;10.02;;;3.50;;
11496;SDS011;5805;51.542;7.230;2023-12-20T12:36:43;7.75;;;3.38;;
11496;SDS011;5805;51.542;7.230;2023-12-20T12:39:08;12.70;;;4.13;;
11496;SDS011;5805;51.542;7.230;2023-12-20T12:41:36;9.85;;;3.40;;
11496;SDS011;5805;51.542;7.230;2023-12-20T12:44:02;6.28;;;3.30;;
11496;SDS011;5805;51.542;7.230;2023-12-20T12:46:29;11.02;;;3.55;;
11496;SDS011;5805;51.542;7.230;2023-12-20T12:48:55;8.05;;;3.42;;
11496;SDS011;5805;51.542;7.230;2023-12-20T12:51:22;7.57;;;3.22;;
11496;SDS011;5805;51.542;7.230;2023-12-20T12:53:48;12.35;;;3.45;;
11496;SDS011;5805;51.542;7.230;2023-12-20T12:56:13;10.13;;;3.58;;
11496;SDS011;5805;51.542;7.230;2023-12-20T12:58:40;7.57;;;2.63;;
11496;SDS011;5805;51.542;7.230;2023-12-20T13:01:05;9.52;;;3.83;;
11496;SDS011;5805;51.542;7.230;2023-12-20T13:03:31;7.93;;;3.92;;
11496;SDS011;5805;51.542;7.230;2023-12-20T13:05:57;8.32;;;3.75;;
11496;SDS011;5805;51.542;7.230;2023-12-20T13:08:24;10.23;;;3.83;;
11496;SDS011;5805;51.542;7.230;2023-12-20T13:10:50;9.52;;;3.78;;
11496;SDS011;5805;51.542;7.230;2023-12-20T13:13:16;12.32;;;3.63;;
11496;SDS011;5805;51.542;7.230;2023-12-20T13:15:41;11.13;;;3.35;;
11496;SDS011;5805;51.542;7.230;2023-12-20T13:18:07;18.90;;;4.00;;
11496;SDS011;5805;51.542;7.230;2023-12-20T13:20:33;8.88;;;2.85;;
11496;SDS011;5805;51.542;7.230;2023-12-20T13:22:58;10.65;;;2.60;;
11496;SDS011;5805;51.542;7.230;2023-12-20T13:25:25;12.63;;;3.00;;
11496;SDS011;5805;51.542;7.230;2023-12-20T13:27:51;6.60;;;2.83;;
11496;SDS011;5805;51.542;7.230;2023-12-20T13:30:18;9.02;;;2.70;;
11496;SDS011;5805;51.542;7.230;2023-12-20T13:32:44;6.78;;;2.80;;
11496;SDS011;5805;51.542;7.230;2023-12-20T13:35:09;8.32;;;2.88;;
11496;SDS011;5805;51.542;7.230;2023-12-20T13:37:35;8.05;;;3.00;;
11496;SDS011;5805;51.542;7.230;2023-12-20T13:40:01;11.98;;;3.40;;
11496;SDS011;5805;51.542;7.230;2023-12-20T13:42:28;10.93;;;3.03;;
11496;SDS011;5805;51.542;7.230;2023-12-20T13:44:54;10.82;;;2.65;;
11496;SDS011;5805;51.542;7.230;2023-12-20T13:47:20;10.23;;;3.20;;
11496;SDS011;5805;51.542;7.230;2023-12-20T13:49:45;8.77;;;2.92;;
11496;SDS011;5805;51.542;7.230;2023-12-20T13:52:11;8.73;;;2.75;;
11496;SDS011;5805;51.542;7.230;2023-12-20T13:54:37;7.07;;;2.70;;
11496;SDS011;5805;51.542;7.230;2023-12-20T13:57:03;10.02;;;2.53;;
11496;SDS011;5805;51.542;7.230;2023-12-20T13:59:30;7.38;;;2.88;;
11496;SDS011;5805;51.542;7.230;2023-12-20T14:01:56;5.93;;;2.85;;
11496;SDS011;5805;51.542;7.230;2023-12-20T14:04:22;4.90;;;2.28;;
11496;SDS011;5805;51.542;7.230;2023-12-20T14:06:47;5.45;;;2.90;;
11496;SDS011;5805;51.542;7.230;2023-12-20T14:09:13;7.65;;;2.90;;
11496;SDS011;5805;51.542;7.230;2023-12-20T14:11:39;7.25;;;2.85;;
11496;SDS011;5805;51.542;7.230;2023-12-20T14:14:06;8.93;;;3.33;;
11496;SDS011;5805;51.542;7.230;2023-12-20T14:16:33;8.70;;;3.17;;
11496;SDS011;5805;51.542;7.230;2023-12-20T14:18:59;6.90;;;2.97;;
11496;SDS011;5805;51.542;7.230;2023-12-20T14:21:25;6.93;;;3.45;;
11496;SDS011;5805;51.542;7.230;2023-12-20T14:23:50;10.82;;;3.28;;
11496;SDS011;5805;51.542;7.230;2023-12-20T14:26:16;6.40;;;3.65;;
11496;SDS011;5805;51.542;7.230;2023-12-20T14:28:43;5.50;;;2.90;;
11496;SDS011;5805;51.542;7.230;2023-12-20T14:31:09;9.73;;;3.60;;
11496;SDS011;5805;51.542;7.230;2023-12-20T14:33:36;8.35;;;3.40;;
11496;SDS011;5805;51.542;7.230;2023-12-20T14:36:02;9.43;;;3.60;;
11496;SDS011;5805;51.542;7.230;2023-12-20T14:38:28;9.02;;;3.33;;
11496;SDS011;5805;51.542;7.230;2023-12-20T14:40:54;14.38;;;3.60;;
11496;SDS011;5805;51.542;7.230;2023-12-20T14:43:20;5.97;;;3.45;;
11496;SDS011;5805;51.542;7.230;2023-12-20T14:45:45;6.80;;;3.38;;
11496;SDS011;5805;51.542;7.230;2023-12-20T14:48:11;8.70;;;3.25;;